createdAt,value
2023-01-07T00:01:34.780Z,53.83
2023-01-07T00:04:04.690Z,57.40
2023-01-07T00:06:35.616Z,56.10
2023-01-07T00:09:05.827Z,60.05
2023-01-07T00:11:38.659Z,57.45
2023-01-07T00:14:08.884Z,56.72
2023-01-07T00:16:37.383Z,53.25
2023-01-07T00:19:07.030Z,57.80
2023-01-07T00:21:34.806Z,52.65
2023-01-07T00:24:05.235Z,58.15
2023-01-07T00:26:37.868Z,60.63
2023-01-07T00:29:07.260Z,62.13
2023-01-07T00:31:37.662Z,62.22
2023-01-07T00:34:06.450Z,56.67
2023-01-07T00:36:37.667Z,59.10
2023-01-07T00:39:12.938Z,62.17
2023-01-07T00:41:40.808Z,61.30
2023-01-07T00:44:08.880Z,60.22
2023-01-07T00:46:36.618Z,61.45
2023-01-07T00:49:04.660Z,64.80
2023-01-07T00:51:32.360Z,64.78
2023-01-07T00:54:00.308Z,71.40
2023-01-07T00:56:27.948Z,66.07
2023-01-07T00:58:55.965Z,68.93
2023-01-07T01:01:23.862Z,63.85
2023-01-07T01:03:51.893Z,70.63
2023-01-07T01:06:19.570Z,73.55
2023-01-07T01:08:48.004Z,74.05
2023-01-07T01:11:17.134Z,68.40
2023-01-07T01:13:46.433Z,75.43
2023-01-07T01:16:17.195Z,67.00
2023-01-07T01:18:46.436Z,71.28
2023-01-07T01:21:16.136Z,93.88
2023-01-07T01:23:44.789Z,71.57
2023-01-07T01:26:15.068Z,66.18
2023-01-07T01:28:43.872Z,73.95
2023-01-07T01:31:13.896Z,64.93
2023-01-07T01:33:49.156Z,65.95
2023-01-07T01:36:20.531Z,61.53
2023-01-07T01:38:48.576Z,65.07
2023-01-07T01:41:16.606Z,70.03
2023-01-07T01:43:46.462Z,67.72
2023-01-07T01:46:35.649Z,72.03
2023-01-07T01:49:19.411Z,69.13
2023-01-07T01:51:54.206Z,74.45
2023-01-07T01:54:22.414Z,62.78
2023-01-07T01:56:55.929Z,68.20
2023-01-07T01:59:30.970Z,66.80
2023-01-07T02:02:04.097Z,71.22
2023-01-07T02:04:33.332Z,62.58
2023-01-07T02:07:06.765Z,73.93
2023-01-07T02:09:37.248Z,71.80
2023-01-07T02:12:38.522Z,66.53
2023-01-07T02:15:13.709Z,69.40
2023-01-07T02:17:55.085Z,76.30
2023-01-07T02:20:35.887Z,79.45
2023-01-07T02:23:41.949Z,75.40
2023-01-07T02:26:34.280Z,95.75
2023-01-07T02:29:11.204Z,79.93
2023-01-07T02:32:09.812Z,81.80
2023-01-07T02:34:52.025Z,85.10
2023-01-07T02:37:37.929Z,106.80
2023-01-07T02:40:24.440Z,99.20
2023-01-07T02:43:04.598Z,109.15
2023-01-07T02:45:47.611Z,119.00
2023-01-07T02:48:19.905Z,89.97
2023-01-07T02:50:47.620Z,102.07
2023-01-07T02:53:19.639Z,104.93
2023-01-07T02:55:52.608Z,82.80
2023-01-07T02:58:25.753Z,81.07
2023-01-07T03:01:11.970Z,90.57
2023-01-07T03:04:06.402Z,92.25
2023-01-07T03:06:45.722Z,119.22
2023-01-07T03:09:33.156Z,94.95
2023-01-07T03:12:24.519Z,106.30
2023-01-07T03:15:01.627Z,110.78
2023-01-07T03:17:35.503Z,101.22
2023-01-07T03:20:06.056Z,101.28
2023-01-07T03:22:36.649Z,83.03
2023-01-07T03:25:05.925Z,81.00
2023-01-07T03:27:36.832Z,85.55
2023-01-07T03:30:10.232Z,90.95
2023-01-07T03:33:01.451Z,79.80
2023-01-07T03:35:33.000Z,77.28
2023-01-07T03:38:03.119Z,159.85
2023-01-07T03:40:32.576Z,206.88
2023-01-07T03:43:00.649Z,80.03
2023-01-07T03:45:29.489Z,140.23
2023-01-07T03:47:59.541Z,102.93
2023-01-07T03:50:34.643Z,94.00
2023-01-07T03:53:03.167Z,95.95
2023-01-07T03:55:34.327Z,105.10
2023-01-07T03:58:02.562Z,110.97
2023-01-07T04:00:30.711Z,111.75
2023-01-07T04:03:11.946Z,90.68
2023-01-07T04:05:43.140Z,86.18
2023-01-07T04:08:12.360Z,75.38
2023-01-07T04:10:41.004Z,109.60
2023-01-07T04:13:09.299Z,99.93
2023-01-07T04:15:37.949Z,90.55
2023-01-07T04:18:05.698Z,99.53
2023-01-07T04:20:33.740Z,147.02
2023-01-07T04:23:01.503Z,91.00
2023-01-07T04:25:32.295Z,111.30
2023-01-07T04:28:02.561Z,91.32
2023-01-07T04:30:30.813Z,89.13
2023-01-07T04:32:58.500Z,98.97
2023-01-07T04:35:26.831Z,84.47
2023-01-07T04:37:54.628Z,105.07
2023-01-07T04:40:22.639Z,98.55
2023-01-07T04:42:50.312Z,99.65
2023-01-07T04:45:18.579Z,102.18
2023-01-07T04:47:46.518Z,83.60
2023-01-07T04:50:15.594Z,91.78
2023-01-07T04:52:43.463Z,126.30
2023-01-07T04:55:11.517Z,99.40
2023-01-07T04:57:39.591Z,100.35
2023-01-07T05:00:09.758Z,89.90
2023-01-07T05:02:38.233Z,194.77
2023-01-07T05:05:06.826Z,107.13
2023-01-07T05:07:36.054Z,158.93
2023-01-07T05:10:05.020Z,101.55
2023-01-07T05:12:35.437Z,121.40
2023-01-07T05:15:05.780Z,132.23
2023-01-07T05:17:35.599Z,81.10
2023-01-07T05:20:07.755Z,111.93
2023-01-07T05:22:37.444Z,95.10
2023-01-07T05:25:06.607Z,136.63
2023-01-07T05:27:34.332Z,127.57
2023-01-07T05:30:05.228Z,132.60
2023-01-07T05:32:32.993Z,118.40
2023-01-07T05:35:02.039Z,198.48
2023-01-07T05:37:30.096Z,201.18
2023-01-07T05:39:58.880Z,123.63
2023-01-07T05:42:26.723Z,166.50
2023-01-07T05:44:55.041Z,102.82
2023-01-07T05:47:22.843Z,114.38
2023-01-07T05:49:51.028Z,108.53
2023-01-07T05:52:18.785Z,147.90
2023-01-07T05:54:46.766Z,124.07
2023-01-07T05:57:14.487Z,149.32
2023-01-07T05:59:42.465Z,387.38
2023-01-07T06:02:10.317Z,137.13
2023-01-07T06:04:38.376Z,156.27
2023-01-07T06:07:06.170Z,200.93
2023-01-07T06:09:34.381Z,230.90
2023-01-07T06:12:02.084Z,182.80
2023-01-07T06:14:30.075Z,118.03
2023-01-07T06:16:57.778Z,124.68
2023-01-07T06:19:26.550Z,107.88
2023-01-07T06:21:54.254Z,161.45
2023-01-07T06:24:22.247Z,197.75
2023-01-07T06:26:50.123Z,112.93
2023-01-07T06:29:18.808Z,137.93
2023-01-07T06:31:46.520Z,119.28
2023-01-07T06:34:14.557Z,103.50
2023-01-07T06:36:42.321Z,85.65
2023-01-07T06:39:11.194Z,96.15
2023-01-07T06:41:38.967Z,91.20
2023-01-07T06:44:07.150Z,87.07
2023-01-07T06:46:34.938Z,73.43
2023-01-07T06:49:03.561Z,71.93
2023-01-07T06:51:31.464Z,71.38
2023-01-07T06:53:59.577Z,68.50
2023-01-07T06:56:27.269Z,70.15
2023-01-07T06:58:55.213Z,67.75
2023-01-07T07:01:23.109Z,69.45
2023-01-07T07:03:51.126Z,65.90
2023-01-07T07:06:18.975Z,65.43
2023-01-07T07:08:47.154Z,74.20
2023-01-07T07:11:14.842Z,72.55
2023-01-07T07:13:42.979Z,74.03
2023-01-07T07:16:10.727Z,63.55
2023-01-07T07:18:38.838Z,62.65
2023-01-07T07:21:06.641Z,64.50
2023-01-07T07:23:34.663Z,62.90
2023-01-07T07:26:02.421Z,54.15
2023-01-07T07:28:30.325Z,61.70
2023-01-07T07:30:58.157Z,65.50
2023-01-07T07:33:26.188Z,72.72
2023-01-07T07:35:55.275Z,82.60
2023-01-07T07:38:23.408Z,91.80
2023-01-07T07:40:51.195Z,63.28
2023-01-07T07:43:19.305Z,62.50
2023-01-07T07:45:46.999Z,68.38
2023-01-07T07:48:15.895Z,57.08
2023-01-07T07:50:44.139Z,57.35
2023-01-07T07:53:12.262Z,58.75
2023-01-07T07:55:40.687Z,65.65
2023-01-07T07:58:08.701Z,60.72
2023-01-07T08:00:36.490Z,58.25
2023-01-07T08:03:05.367Z,67.82
2023-01-07T08:05:33.232Z,62.65
2023-01-07T08:08:01.759Z,57.20
2023-01-07T08:10:30.067Z,56.70
2023-01-07T08:12:58.016Z,55.85
2023-01-07T08:15:25.773Z,60.10
2023-01-07T08:18:05.454Z,54.80
2023-01-07T08:20:34.775Z,57.63
2023-01-07T08:23:04.618Z,58.78
2023-01-07T08:25:33.698Z,53.40
2023-01-07T08:28:02.625Z,54.53
2023-01-07T08:30:30.891Z,53.42
2023-01-07T08:32:59.471Z,53.00
2023-01-07T08:35:27.207Z,52.30
2023-01-07T08:38:05.671Z,49.38
2023-01-07T08:40:34.314Z,50.80
2023-01-07T08:43:06.215Z,48.38
2023-01-07T08:45:34.775Z,46.75
2023-01-07T08:48:03.366Z,47.88
2023-01-07T08:50:33.334Z,51.60
2023-01-07T08:53:01.792Z,51.20
2023-01-07T08:55:29.608Z,51.75
2023-01-07T08:57:58.240Z,50.08
2023-01-07T09:00:26.044Z,47.38
2023-01-07T09:02:54.040Z,47.35
2023-01-07T09:05:22.371Z,46.42
2023-01-07T09:07:53.405Z,48.40
2023-01-07T09:10:21.421Z,46.13
2023-01-07T09:12:49.602Z,47.55
2023-01-07T09:15:17.455Z,45.33
2023-01-07T09:17:45.813Z,47.28
2023-01-07T09:20:13.700Z,47.00
2023-01-07T09:22:41.729Z,46.15
2023-01-07T09:25:09.649Z,50.65
2023-01-07T09:27:38.446Z,47.15
2023-01-07T09:30:08.105Z,46.20
2023-01-07T09:32:36.289Z,52.25
2023-01-07T09:35:05.011Z,44.33
2023-01-07T09:37:33.338Z,45.78
2023-01-07T09:40:01.320Z,45.70
2023-01-07T09:42:56.262Z,48.70
2023-01-07T09:47:59.983Z,45.85
2023-01-07T09:50:42.812Z,44.38
2023-01-07T09:53:34.291Z,41.85
2023-01-07T09:56:10.687Z,39.78
2023-01-07T09:58:45.119Z,41.72
2023-01-07T10:01:24.439Z,45.55
2023-01-07T10:04:13.421Z,41.53
2023-01-07T10:07:11.391Z,41.90
2023-01-07T10:09:59.766Z,41.63
2023-01-07T10:12:46.348Z,43.58
2023-01-07T10:15:33.975Z,46.67
2023-01-07T10:18:22.216Z,41.70
2023-01-07T10:21:06.686Z,49.35
2023-01-07T10:26:14.129Z,46.10
2023-01-07T10:29:00.193Z,47.80
2023-01-07T10:31:30.222Z,45.42
2023-01-07T10:34:00.164Z,51.30
2023-01-07T10:36:38.514Z,55.65
2023-01-07T10:39:14.950Z,53.67
2023-01-07T10:41:59.205Z,58.47
2023-01-07T10:44:26.803Z,61.28
2023-01-07T10:47:52.281Z,58.92
2023-01-07T10:50:27.625Z,56.70
2023-01-07T10:53:22.778Z,55.60
2023-01-07T10:56:05.951Z,60.47
2023-01-07T10:58:43.211Z,60.63
2023-01-07T11:01:38.140Z,57.42
2023-01-07T11:04:13.378Z,54.45
2023-01-07T11:07:04.518Z,59.47
2023-01-07T11:09:45.122Z,55.20
2023-01-07T11:12:41.560Z,56.83
2023-01-07T11:15:19.106Z,52.95
2023-01-07T11:17:59.364Z,55.30
2023-01-07T11:20:49.883Z,51.25
2023-01-07T11:23:34.483Z,53.92
2023-01-07T11:26:17.188Z,55.67
2023-01-07T11:28:53.375Z,55.85
2023-01-07T11:31:33.189Z,52.75
2023-01-07T11:34:04.457Z,50.33
2023-01-07T11:36:43.006Z,48.03
2023-01-07T11:39:21.606Z,51.67
2023-01-07T11:41:58.192Z,52.85
2023-01-07T11:44:26.867Z,56.67
2023-01-07T11:46:55.796Z,49.97
2023-01-07T11:49:39.227Z,57.05
2023-01-07T11:52:17.040Z,53.30
2023-01-07T11:54:53.327Z,54.95
2023-01-07T11:57:28.015Z,50.35
2023-01-07T12:00:17.530Z,49.03
2023-01-07T12:02:58.925Z,48.83
2023-01-07T12:05:27.873Z,54.75
2023-01-07T12:07:58.084Z,49.78
2023-01-07T12:10:27.555Z,51.58
2023-01-07T12:12:55.872Z,55.75
2023-01-07T12:15:30.844Z,51.60
2023-01-07T12:18:07.999Z,49.58
2023-01-07T12:20:44.832Z,61.00
2023-01-07T12:23:44.609Z,88.22
2023-01-07T12:26:19.754Z,53.83
2023-01-07T12:29:08.652Z,61.35
2023-01-07T12:32:21.153Z,53.13
2023-01-07T12:35:15.464Z,51.20
2023-01-07T12:37:46.472Z,50.33
2023-01-07T12:40:16.166Z,54.42
2023-01-07T12:43:02.446Z,56.10
2023-01-07T12:45:43.985Z,58.33
2023-01-07T12:48:32.018Z,59.95
2023-01-07T12:51:04.505Z,57.72
2023-01-07T12:54:00.622Z,56.95
2023-01-07T12:56:37.648Z,58.30
2023-01-07T12:59:46.018Z,60.60
2023-01-07T13:02:37.413Z,61.33
2023-01-07T13:05:16.511Z,60.85
2023-01-07T13:08:09.690Z,65.57
2023-01-07T13:10:43.255Z,62.58
2023-01-07T13:13:25.002Z,66.15
2023-01-07T13:15:53.221Z,64.05
2023-01-07T13:18:22.473Z,56.40
2023-01-07T13:21:11.767Z,59.17
2023-01-07T13:24:19.102Z,60.05
2023-01-07T13:27:09.561Z,61.75
2023-01-07T13:29:59.562Z,59.85
2023-01-07T13:32:47.197Z,62.67
2023-01-07T13:35:30.089Z,62.15
2023-01-07T13:38:22.848Z,62.85
2023-01-07T13:41:15.016Z,58.20
2023-01-07T13:44:12.423Z,62.20
2023-01-07T13:46:44.834Z,60.97
2023-01-07T13:49:31.221Z,64.38
2023-01-07T13:52:23.543Z,57.72
2023-01-07T13:54:51.461Z,64.82
2023-01-07T13:57:43.294Z,57.25
2023-01-07T14:00:41.928Z,63.75
2023-01-07T14:03:28.239Z,62.97
2023-01-07T14:06:20.802Z,65.80
2023-01-07T14:09:07.076Z,59.97
2023-01-07T14:11:36.185Z,58.47
2023-01-07T14:14:26.080Z,63.92
2023-01-07T14:17:10.608Z,57.38
2023-01-07T14:19:50.319Z,62.53
2023-01-07T14:22:46.567Z,64.47
2023-01-07T14:25:26.698Z,70.53
2023-01-07T14:27:57.533Z,78.85
2023-01-07T14:30:47.235Z,82.43
2023-01-07T14:33:26.912Z,73.35
2023-01-07T14:35:59.487Z,69.03
2023-01-07T14:38:30.334Z,70.70
2023-01-07T14:41:09.356Z,61.47
2023-01-07T14:43:48.908Z,59.38
2023-01-07T14:46:23.163Z,61.53
2023-01-07T14:49:02.983Z,55.83
2023-01-07T14:51:50.333Z,57.08
2023-01-07T14:54:30.185Z,55.45
2023-01-07T14:57:29.342Z,62.63
2023-01-07T15:00:02.457Z,64.68
2023-01-07T15:03:04.043Z,58.80
2023-01-07T15:05:43.778Z,54.33
2023-01-07T15:08:37.031Z,52.47
2023-01-07T15:11:27.074Z,52.92
2023-01-07T15:14:25.705Z,50.35
2023-01-07T15:16:54.527Z,53.92
2023-01-07T15:19:22.516Z,49.88
2023-01-07T15:21:52.966Z,57.30
2023-01-07T15:24:33.513Z,52.15
2023-01-07T15:27:23.197Z,55.22
2023-01-07T15:30:25.083Z,50.13
2023-01-07T15:33:01.665Z,52.25
2023-01-07T15:35:34.211Z,54.88
2023-01-07T15:38:05.135Z,53.33
2023-01-07T15:40:33.278Z,46.55
2023-01-07T15:43:01.369Z,43.28
2023-01-07T15:45:29.946Z,51.10
2023-01-07T15:48:13.382Z,48.47
2023-01-07T15:50:46.189Z,50.45
2023-01-07T15:53:13.789Z,47.70
2023-01-07T15:55:56.435Z,47.30
2023-01-07T15:58:35.759Z,42.88
2023-01-07T16:01:05.121Z,41.45
2023-01-07T16:03:40.533Z,41.28
2023-01-07T16:06:31.026Z,39.53
2023-01-07T16:08:59.821Z,39.53
2023-01-07T16:11:31.763Z,40.33
2023-01-07T16:14:02.130Z,39.28
2023-01-07T16:16:31.985Z,40.83
2023-01-07T16:19:03.895Z,40.45
2023-01-07T16:21:39.646Z,45.53
2023-01-07T16:24:07.616Z,36.88
2023-01-07T16:26:38.734Z,36.25
2023-01-07T16:29:24.174Z,40.65
2023-01-07T16:31:53.067Z,39.42
2023-01-07T16:34:26.929Z,56.70
2023-01-07T16:36:59.186Z,61.92
2023-01-07T16:39:42.266Z,70.50
2023-01-07T16:42:27.249Z,50.72
2023-01-07T16:44:54.888Z,67.43
2023-01-07T16:47:28.095Z,66.72
2023-01-07T16:49:59.257Z,72.60
2023-01-07T16:52:33.670Z,63.92
2023-01-07T16:55:01.616Z,50.25
2023-01-07T16:57:39.823Z,48.58
2023-01-07T17:00:18.883Z,42.38
2023-01-07T17:02:58.687Z,46.70
2023-01-07T17:05:30.436Z,75.35
2023-01-07T17:08:05.686Z,52.45
2023-01-07T17:10:38.846Z,58.35
2023-01-07T17:13:16.045Z,84.65
2023-01-07T17:15:44.321Z,64.53
2023-01-07T17:18:12.268Z,64.15
2023-01-07T17:20:52.686Z,70.43
2023-01-07T17:23:27.102Z,80.22
2023-01-07T17:26:03.658Z,79.10
2023-01-07T17:28:42.899Z,102.47
2023-01-07T17:31:10.623Z,79.28
2023-01-07T17:33:38.560Z,72.45
2023-01-07T17:36:06.790Z,77.38
2023-01-07T17:38:36.190Z,73.28
2023-01-07T17:41:04.124Z,65.90
2023-01-07T17:43:34.899Z,72.03
2023-01-07T17:46:08.743Z,66.07
2023-01-07T17:51:07.261Z,68.85
2023-01-07T17:53:49.432Z,71.05
2023-01-07T17:56:17.222Z,61.45
2023-01-07T17:58:45.353Z,55.30
2023-01-07T18:01:19.326Z,59.70
2023-01-07T18:03:48.542Z,62.80
2023-01-07T18:06:24.821Z,71.45
2023-01-07T18:08:53.427Z,75.38
2023-01-07T18:11:43.022Z,66.03
2023-01-07T18:14:13.522Z,72.32
2023-01-07T18:16:41.715Z,75.55
2023-01-07T18:19:13.631Z,71.55
2023-01-07T18:21:46.131Z,76.63
2023-01-07T18:24:19.864Z,78.10
2023-01-07T18:26:50.654Z,81.00
2023-01-07T18:29:23.862Z,88.38
2023-01-07T18:31:51.888Z,98.47
2023-01-07T18:34:19.884Z,94.00
2023-01-07T18:36:48.345Z,96.15
2023-01-07T18:39:20.634Z,99.18
2023-01-07T18:41:50.096Z,97.28
2023-01-07T18:44:19.255Z,94.35
2023-01-07T18:46:47.313Z,100.15
2023-01-07T18:49:15.693Z,100.18
2023-01-07T18:51:45.922Z,92.10
2023-01-07T18:54:14.493Z,87.13
2023-01-07T18:56:42.475Z,86.18
2023-01-07T18:59:12.040Z,91.00
2023-01-07T19:01:40.413Z,89.80
2023-01-07T19:04:08.573Z,90.55
2023-01-07T19:06:43.894Z,89.07
2023-01-07T19:09:18.034Z,78.47
2023-01-07T19:11:46.114Z,83.53
2023-01-07T19:14:15.313Z,78.63
2023-01-07T19:16:43.478Z,83.88
2023-01-07T19:19:11.497Z,81.30
2023-01-07T19:21:39.118Z,86.68
2023-01-07T19:24:07.473Z,89.35
2023-01-07T19:26:42.890Z,86.28
2023-01-07T19:29:13.916Z,86.72
2023-01-07T19:31:44.485Z,90.55
2023-01-07T19:34:13.418Z,95.50
2023-01-07T19:36:44.977Z,91.43
2023-01-07T19:39:18.802Z,96.55
2023-01-07T19:41:46.860Z,94.70
2023-01-07T19:44:15.311Z,90.88
2023-01-07T19:46:44.106Z,94.63
2023-01-07T19:49:13.556Z,89.50
2023-01-07T19:51:42.245Z,97.35
2023-01-07T19:54:17.950Z,89.55
2023-01-07T19:56:45.688Z,88.75
2023-01-07T19:59:13.675Z,99.13
2023-01-07T20:01:43.599Z,89.10
2023-01-07T20:04:11.619Z,89.65
2023-01-07T20:06:39.519Z,96.65
2023-01-07T20:09:10.963Z,86.38
2023-01-07T20:11:39.740Z,92.40
2023-01-07T20:14:07.848Z,93.18
2023-01-07T20:16:36.969Z,89.32
2023-01-07T20:19:06.453Z,93.65
2023-01-07T20:21:34.345Z,96.80
2023-01-07T20:24:02.426Z,89.28
2023-01-07T20:26:32.212Z,90.13
2023-01-07T20:29:01.973Z,86.80
2023-01-07T20:31:31.029Z,97.22
2023-01-07T20:34:00.121Z,96.60
2023-01-07T20:36:30.858Z,99.18
2023-01-07T20:39:05.247Z,105.45
2023-01-07T20:41:34.871Z,103.07
2023-01-07T20:44:04.545Z,110.75
2023-01-07T20:46:34.899Z,102.05
2023-01-07T20:49:03.050Z,101.97
2023-01-07T20:51:31.121Z,104.00
2023-01-07T20:53:59.102Z,103.53
2023-01-07T20:56:31.811Z,103.60
2023-01-07T20:59:01.965Z,107.32
2023-01-07T21:01:35.724Z,108.38
2023-01-07T21:04:03.935Z,102.30
2023-01-07T21:06:31.895Z,115.88
2023-01-07T21:09:00.154Z,96.63
2023-01-07T21:11:27.786Z,108.20
2023-01-07T21:13:56.466Z,100.95
2023-01-07T21:16:25.136Z,96.07
2023-01-07T21:18:53.142Z,104.80
2023-01-07T21:21:27.682Z,107.20
2023-01-07T21:26:16.458Z,102.60
2023-01-07T21:28:44.805Z,97.18
2023-01-07T21:31:15.944Z,96.43
2023-01-07T21:33:44.759Z,88.97
2023-01-07T21:36:18.328Z,100.28
2023-01-07T21:41:16.332Z,87.38
2023-01-07T21:43:45.512Z,89.32
2023-01-07T21:46:13.831Z,94.63
2023-01-07T21:48:46.538Z,88.15
2023-01-07T21:51:26.449Z,101.22
2023-01-07T21:53:58.370Z,93.28
2023-01-07T21:56:32.605Z,101.57
2023-01-07T21:59:01.152Z,96.93
2023-01-07T22:01:29.555Z,98.50
2023-01-07T22:03:59.518Z,87.88
2023-01-07T22:06:33.015Z,93.20
2023-01-07T22:09:05.070Z,91.75
2023-01-07T22:11:34.355Z,89.75
2023-01-07T22:14:02.602Z,81.50
2023-01-07T22:16:32.126Z,86.15
2023-01-07T22:19:01.330Z,84.32
2023-01-07T22:21:31.127Z,83.63
2023-01-07T22:23:59.111Z,81.60
2023-01-07T22:26:26.758Z,93.10
2023-01-07T22:29:02.627Z,98.47
2023-01-07T22:31:33.924Z,93.82
2023-01-07T22:34:02.329Z,90.60
2023-01-07T22:36:36.342Z,89.13
2023-01-07T22:39:10.288Z,84.70
2023-01-07T22:41:38.405Z,79.30
2023-01-07T22:44:14.013Z,72.00
2023-01-07T22:46:45.386Z,76.32
2023-01-07T22:49:13.997Z,75.97
2023-01-07T22:51:46.271Z,77.38
2023-01-07T22:54:15.240Z,73.38
2023-01-07T22:56:44.137Z,59.03
2023-01-07T22:59:12.559Z,71.60
2023-01-07T23:01:40.221Z,64.13
2023-01-07T23:04:08.324Z,64.70
2023-01-07T23:06:36.100Z,64.97
2023-01-07T23:09:04.601Z,73.78
2023-01-07T23:11:48.736Z,63.17
2023-01-07T23:14:22.163Z,64.72
2023-01-07T23:16:51.347Z,61.90
2023-01-07T23:19:20.553Z,65.95
2023-01-07T23:21:52.797Z,60.10
2023-01-07T23:24:21.546Z,57.33
2023-01-07T23:26:51.412Z,68.40
2023-01-07T23:29:19.971Z,66.32
2023-01-07T23:31:48.285Z,65.05
2023-01-07T23:34:16.749Z,57.40
2023-01-07T23:36:44.421Z,62.20
2023-01-07T23:39:12.995Z,67.20
2023-01-07T23:41:40.858Z,64.38
2023-01-07T23:44:08.777Z,62.22
2023-01-07T23:46:36.613Z,62.85
2023-01-07T23:49:04.657Z,59.33
2023-01-07T23:51:32.261Z,60.15
2023-01-07T23:54:00.312Z,62.53
2023-01-07T23:56:28.070Z,60.45
2023-01-07T23:58:55.989Z,64.50
